Time;durP1;ratioP1;P1;durP2;ratioP2;P2;SDS_P1;SDS_P2;PMS_P1;PMS_P2;Temp;Humidity;BMP_temperature;BMP_pressure;BME280_temperature;BME280_humidity;BME280_pressure;Samples;Min_cycle;Max_cycle;Signal;HPM_P1;HPM_P2
2021/10/11 00:00:28;;;;;;;9.93;2.20;;;;;;;11.81;90.16;102851.16;5053575;28;20021;-52
2021/10/11 00:02:53;;;;;;;8.88;2.47;;;;;;;11.81;90.00;102853.81;5053352;28;20029;-54
2021/10/11 00:05:19;;;;;;;12.13;2.15;;;;;;;11.76;89.69;102847.69;5053257;28;20043;-54
2021/10/11 00:07:44;;;;;;;8.35;1.80;;;;;;;11.71;89.52;102850.44;5053062;28;20108;-55
2021/10/11 00:10:16;;;;;;;15.07;2.58;;;;;;;11.67;89.45;102851.38;5053380;28;20029;-52
2021/10/11 00:12:42;;;;;;;10.18;2.38;;;;;;;11.66;89.34;102854.06;5052825;28;20104;-55
2021/10/11 00:15:08;;;;;;;9.48;2.20;;;;;;;11.66;89.23;102852.28;5052451;28;20120;-50
2021/10/11 00:17:33;;;;;;;12.60;2.70;;;;;;;11.63;88.98;102858.53;5053038;28;20041;-54
2021/10/11 00:19:58;;;;;;;10.60;2.25;;;;;;;11.58;88.83;102854.22;5052901;28;20104;-53
2021/10/11 00:22:23;;;;;;;15.60;2.80;;;;;;;11.55;88.52;102857.78;5052913;28;20392;-53
2021/10/11 00:24:49;;;;;;;7.70;2.45;;;;;;;11.52;88.46;102857.84;5053155;28;20056;-55
2021/10/11 00:27:14;;;;;;;10.65;1.98;;;;;;;11.52;88.14;102854.31;5053067;28;20358;-50
2021/10/11 00:29:40;;;;;;;11.07;2.55;;;;;;;11.50;87.99;102854.34;5052454;28;20033;-51
2021/10/11 00:32:07;;;;;;;10.45;2.80;;;;;;;11.53;87.48;102846.31;5053110;28;20079;-50
2021/10/11 00:34:36;;;;;;;10.18;2.35;;;;;;;11.56;86.71;102843.63;5052317;28;20353;-52
2021/10/11 00:37:02;;;;;;;7.10;2.13;;;;;;;11.56;86.24;102837.41;5053201;28;20067;-51
2021/10/11 00:39:28;;;;;;;10.52;2.15;;;;;;;11.52;85.98;102847.22;5052695;28;20029;-51
2021/10/11 00:41:53;;;;;;;10.88;2.22;;;;;;;11.48;85.83;102846.41;5052041;28;20043;-52
2021/10/11 00:44:18;;;;;;;15.90;2.20;;;;;;;11.46;85.25;102840.25;5052382;28;20044;-53
2021/10/11 00:46:44;;;;;;;9.93;1.77;;;;;;;11.41;85.47;102839.44;5052806;28;20036;-55
2021/10/11 00:49:09;;;;;;;12.20;2.88;;;;;;;11.33;85.50;102846.66;5052320;28;20029;-57
2021/10/11 00:51:34;;;;;;;12.50;2.38;;;;;;;11.24;85.65;102845.03;5052332;28;20025;-53
2021/10/11 00:54:00;;;;;;;7.35;1.88;;;;;;;11.15;85.97;102858.41;5052195;28;20024;-51
2021/10/11 00:56:26;;;;;;;11.60;2.10;;;;;;;11.06;86.29;102854.13;5052244;28;20059;-55
2021/10/11 00:58:52;;;;;;;7.22;1.70;;;;;;;10.95;87.04;102845.44;5052517;28;20021;-59
2021/10/11 01:01:17;;;;;;;13.63;2.42;;;;;;;10.87;87.37;102849.97;5052128;28;20032;-55
2021/10/11 01:03:43;;;;;;;11.38;2.15;;;;;;;10.84;87.24;102850.03;5052469;28;20115;-53
2021/10/11 01:06:09;;;;;;;11.93;2.03;;;;;;;10.80;86.87;102852.69;5050924;28;20383;-52
2021/10/11 01:08:35;;;;;;;8.55;1.83;;;;;;;10.77;86.61;102847.44;5051978;28;20036;-53
2021/10/11 01:11:00;;;;;;;11.60;2.17;;;;;;;10.75;86.01;102857.19;5051526;28;20041;-54
2021/10/11 01:13:26;;;;;;;9.38;1.83;;;;;;;10.75;85.39;102846.56;5052073;28;20017;-55
2021/10/11 01:15:51;;;;;;;9.75;1.98;;;;;;;10.79;84.94;102843.03;5051648;28;20043;-55
2021/10/11 01:18:16;;;;;;;10.00;1.92;;;;;;;10.78;84.47;102845.66;5052590;28;20160;-55
2021/10/11 01:20:41;;;;;;;6.35;1.95;;;;;;;10.74;84.52;102851.91;5051669;28;20070;-52
2021/10/11 01:23:07;;;;;;;8.68;1.73;;;;;;;10.67;84.79;102848.47;5051938;28;20375;-55
2021/10/11 01:25:32;;;;;;;7.22;1.75;;;;;;;10.60;84.88;102846.78;5051720;28;20100;-54
2021/10/11 01:27:57;;;;;;;13.98;1.92;;;;;;;10.52;85.33;102844.22;5051806;28;20051;-52
2021/10/11 01:30:23;;;;;;;6.22;1.40;;;;;;;10.46;85.41;102846.94;5052118;28;20060;-53
2021/10/11 01:32:49;;;;;;;10.27;2.20;;;;;;;10.37;85.94;102862.97;5051187;28;20503;-54
2021/10/11 01:35:16;;;;;;;10.25;1.83;;;;;;;10.33;86.04;102854.13;5051346;28;20066;-55
2021/10/11 01:37:42;;;;;;;9.07;1.70;;;;;;;10.29;86.17;102865.66;5051565;28;20094;-54
2021/10/11 01:40:08;;;;;;;10.82;2.63;;;;;;;10.26;86.12;102853.34;5051423;28;20025;-54
2021/10/11 01:42:34;;;;;;;9.68;1.98;;;;;;;10.26;86.06;102855.13;5051269;28;20401;-54
2021/10/11 01:44:59;;;;;;;9.73;1.90;;;;;;;10.29;85.26;102850.66;5051635;28;20160;-55
2021/10/11 01:47:27;;;;;;;8.93;1.83;;;;;;;10.27;85.55;102847.16;5051226;28;20028;-55
2021/10/11 01:49:52;;;;;;;9.05;2.20;;;;;;;10.24;85.27;102836.56;5051829;28;20025;-54
2021/10/11 01:52:18;;;;;;;9.05;1.77;;;;;;;10.21;85.51;102833.97;5051391;28;20036;-54
2021/10/11 01:54:43;;;;;;;10.15;1.77;;;;;;;10.19;85.58;102841.03;5051225;28;20120;-55
2021/10/11 01:57:09;;;;;;;11.50;1.80;;;;;;;10.16;85.26;102841.09;5057750;28;20077;-54
2021/10/11 01:59:35;;;;;;;6.63;1.55;;;;;;;10.11;85.32;102842.91;5071552;28;20024;-54
2021/10/11 02:02:02;;;;;;;8.57;1.90;;;;;;;10.05;86.20;102848.28;5071369;28;20175;-53
2021/10/11 02:04:28;;;;;;;7.57;1.70;;;;;;;9.99;86.01;102844.78;5059476;28;20880;-53
2021/10/11 02:06:53;;;;;;;6.35;1.60;;;;;;;9.98;86.16;102843.03;5050950;28;20131;-54
2021/10/11 02:09:19;;;;;;;10.82;1.60;;;;;;;9.96;85.86;102838.66;5051159;28;20056;-54
2021/10/11 02:11:45;;;;;;;8.20;2.03;;;;;;;9.92;85.95;102843.09;5051333;28;20112;-57
2021/10/11 02:14:10;;;;;;;11.77;2.35;;;;;;;9.89;86.10;102839.63;5051042;28;20100;-53
2021/10/11 02:16:35;;;;;;;10.55;1.70;;;;;;;9.83;86.18;102840.53;5051164;28;20475;-54
2021/10/11 02:19:01;;;;;;;7.47;1.85;;;;;;;9.77;86.29;102841.50;5053980;28;20039;-52
2021/10/11 02:21:27;;;;;;;8.60;1.92;;;;;;;9.71;87.27;102849.47;5055154;28;20051;-55
2021/10/11 02:23:52;;;;;;;11.00;1.90;;;;;;;9.68;87.22;102844.22;5054748;28;20524;-55
2021/10/11 02:26:18;;;;;;;7.85;1.60;;;;;;;9.71;86.52;102845.97;5054710;28;20189;-53
2021/10/11 02:28:43;;;;;;;9.73;1.80;;;;;;;9.75;86.65;102850.34;5054563;28;20021;-54
2021/10/11 02:31:08;;;;;;;6.28;1.63;;;;;;;9.72;86.70;102830.06;5055063;28;20032;-54
2021/10/11 02:33:34;;;;;;;11.68;2.15;;;;;;;9.73;86.87;102833.59;5054961;28;20112;-53
2021/10/11 02:35:59;;;;;;;12.13;2.17;;;;;;;9.69;87.13;102824.78;5054359;28;20476;-54
2021/10/11 02:38:24;;;;;;;6.53;1.60;;;;;;;9.68;87.24;102821.28;5054555;28;20025;-52
2021/10/11 02:40:50;;;;;;;9.02;1.67;;;;;;;9.68;87.17;102829.22;5054053;28;20376;-54
2021/10/11 02:43:15;;;;;;;8.25;1.60;;;;;;;9.68;86.90;102820.41;5053893;28;20405;-53
2021/10/11 02:45:40;;;;;;;9.23;1.67;;;;;;;9.67;86.87;102818.66;5054377;28;20033;-52
2021/10/11 02:48:06;;;;;;;6.22;1.63;;;;;;;9.63;86.96;102807.22;5054777;28;20025;-53
2021/10/11 02:50:32;;;;;;;9.63;1.88;;;;;;;9.61;86.77;102805.47;5054548;28;20033;-54
2021/10/11 02:52:57;;;;;;;9.75;1.70;;;;;;;9.58;87.18;102803.75;5054670;28;20036;-52
2021/10/11 02:55:23;;;;;;;7.00;1.65;;;;;;;9.53;87.43;102805.56;5054478;28;20036;-53
2021/10/11 02:57:48;;;;;;;5.07;1.77;;;;;;;9.46;87.67;102801.19;5054361;28;20094;-50
2021/10/11 03:00:13;;;;;;;8.93;1.85;;;;;;;9.39;88.83;102805.66;5054741;28;20024;-54
2021/10/11 03:02:39;;;;;;;9.43;2.00;;;;;;;9.32;89.94;102804.84;5054529;28;20116;-50
2021/10/11 03:05:04;;;;;;;9.77;1.80;;;;;;;9.26;89.79;102799.59;5054649;28;20075;-51
2021/10/11 03:07:30;;;;;;;10.15;2.08;;;;;;;9.20;90.40;102801.44;5054450;28;20481;-55
2021/10/11 03:09:55;;;;;;;12.25;2.72;;;;;;;9.12;91.29;102802.34;5054572;28;20029;-54
2021/10/11 03:12:20;;;;;;;10.15;2.08;;;;;;;9.09;91.44;102801.47;5054502;28;20111;-55
2021/10/11 03:14:46;;;;;;;6.07;1.50;;;;;;;9.10;91.78;102803.25;5054820;28;20064;-54
2021/10/11 03:17:11;;;;;;;5.10;1.80;;;;;;;9.17;92.89;102807.59;5054928;28;20037;-53
2021/10/11 03:19:36;;;;;;;11.70;1.98;;;;;;;9.28;93.55;102804.88;5054248;28;20057;-53
2021/10/11 03:22:02;;;;;;;6.60;1.55;;;;;;;9.42;93.96;102812.69;5054426;28;20174;-51
2021/10/11 03:24:28;;;;;;;11.55;2.00;;;;;;;9.55;93.85;102803.75;5054198;28;20033;-51
2021/10/11 03:26:54;;;;;;;8.43;1.80;;;;;;;9.67;93.70;102802.78;5054452;28;20070;-52
2021/10/11 03:29:19;;;;;;;11.73;2.08;;;;;;;9.75;93.41;102802.72;5053298;28;20393;-55
2021/10/11 03:31:44;;;;;;;8.50;1.90;;;;;;;9.82;93.15;102799.97;5054188;28;20087;-53
2021/10/11 03:34:11;;;;;;;10.80;2.05;;;;;;;9.95;92.51;102802.50;5053938;28;20388;-55
2021/10/11 03:36:38;;;;;;;9.82;2.10;;;;;;;9.99;91.54;102797.16;5054278;28;20075;-53
2021/10/11 03:39:03;;;;;;;6.78;1.90;;;;;;;10.04;90.29;102799.75;5054210;28;20123;-54
2021/10/11 03:41:29;;;;;;;10.07;2.03;;;;;;;10.09;90.56;102800.59;5053797;28;20525;-51
2021/10/11 03:43:54;;;;;;;7.03;2.40;;;;;;;10.18;90.34;102796.97;5053774;28;20064;-54
2021/10/11 03:46:19;;;;;;;9.40;2.00;;;;;;;10.24;90.59;102803.94;5052994;28;20037;-55
2021/10/11 03:48:45;;;;;;;8.10;1.77;;;;;;;10.29;89.29;102791.50;5053765;28;20348;-55
2021/10/11 03:51:10;;;;;;;7.88;1.88;;;;;;;10.26;89.06;102786.28;5053560;28;20036;-53
2021/10/11 03:53:37;;;;;;;6.85;2.20;;;;;;;10.24;89.56;102794.22;5053863;28;20105;-55
2021/10/11 03:56:03;;;;;;;11.50;1.90;;;;;;;10.28;89.54;102785.34;5053476;28;20025;-54
2021/10/11 03:58:28;;;;;;;16.42;2.20;;;;;;;10.28;89.69;102782.72;5054161;28;20052;-54
2021/10/11 04:00:54;;;;;;;11.35;2.38;;;;;;;10.33;90.26;102796.78;5053518;28;20029;-53
2021/10/11 04:03:19;;;;;;;10.57;2.28;;;;;;;10.39;90.70;102782.59;5054291;28;20029;-53
2021/10/11 04:05:44;;;;;;;8.80;2.30;;;;;;;10.43;90.86;102788.72;5053226;28;20029;-54
2021/10/11 04:08:14;;;;;;;6.88;1.80;;;;;;;10.47;91.47;102795.72;5053651;28;20118;-53
2021/10/11 04:10:50;;;;;;;7.45;2.10;;;;;;;10.47;90.73;102793.97;5053442;28;20054;-54
2021/10/11 04:13:20;;;;;;;10.73;2.20;;;;;;;10.49;90.94;102801.91;5053160;28;20025;-53
2021/10/11 04:15:48;;;;;;;10.68;2.60;;;;;;;10.49;90.89;102801.91;5052994;28;20025;-53
2021/10/11 04:18:13;;;;;;;13.65;2.72;;;;;;;10.50;90.46;102801.00;5051994;28;20358;-52
2021/10/11 04:20:39;;;;;;;11.38;2.50;;;;;;;10.52;90.24;102793.03;5053235;28;20029;-54
2021/10/11 04:23:04;;;;;;;7.68;2.22;;;;;;;10.58;90.01;102803.56;5053035;28;20039;-57
2021/10/11 04:25:29;;;;;;;11.63;2.33;;;;;;;10.60;90.29;102802.63;5053227;28;20108;-53
2021/10/11 04:27:54;;;;;;;6.93;1.90;;;;;;;10.63;88.72;102799.94;5052189;28;20125;-52
2021/10/11 04:30:20;;;;;;;12.63;2.30;;;;;;;10.67;89.27;102799.91;5052969;28;20032;-53
2021/10/11 04:32:45;;;;;;;8.48;2.20;;;;;;;10.71;89.41;102798.97;5052706;28;20024;-53
2021/10/11 04:35:11;;;;;;;11.77;2.20;;;;;;;10.74;89.08;102789.19;5052817;28;20032;-54
2021/10/11 04:37:39;;;;;;;8.32;2.17;;;;;;;10.74;89.29;102796.25;5052343;28;20107;-54
2021/10/11 04:40:05;;;;;;;8.73;2.17;;;;;;;10.76;89.63;102798.00;5052916;28;20078;-56
2021/10/11 04:42:30;;;;;;;8.57;2.30;;;;;;;10.81;89.52;102787.34;5052165;28;20053;-53
2021/10/11 04:44:56;;;;;;;11.05;2.38;;;;;;;10.83;89.20;102772.25;5052713;28;20120;-53
2021/10/11 04:47:21;;;;;;;8.50;2.03;;;;;;;10.82;89.16;102770.53;5052779;28;20032;-54
2021/10/11 04:49:46;;;;;;;9.98;2.22;;;;;;;10.83;88.77;102782.88;5053215;28;20056;-51
2021/10/11 04:52:11;;;;;;;11.43;2.50;;;;;;;10.82;88.93;102774.06;5052723;28;20105;-54
2021/10/11 04:54:37;;;;;;;8.98;2.25;;;;;;;10.82;88.75;102783.78;5052343;28;20435;-53
2021/10/11 04:57:02;;;;;;;14.05;2.50;;;;;;;10.84;88.62;102786.41;5052105;28;20387;-53
2021/10/11 04:59:28;;;;;;;8.52;2.38;;;;;;;10.83;88.42;102788.16;5052193;28;20490;-57
2021/10/11 05:01:53;;;;;;;8.20;2.08;;;;;;;10.84;88.32;102789.06;5052546;28;20029;-52
2021/10/11 05:04:18;;;;;;;7.40;2.00;;;;;;;10.81;88.53;102787.34;5052268;28;20104;-52
2021/10/11 05:06:43;;;;;;;7.90;2.10;;;;;;;10.81;88.87;102795.28;5052274;28;20032;-53
2021/10/11 05:09:09;;;;;;;8.40;2.88;;;;;;;10.81;89.08;102796.16;5051839;28;20036;-55
2021/10/11 05:11:34;;;;;;;11.02;2.40;;;;;;;10.83;89.00;102796.13;5052343;28;20040;-53
2021/10/11 05:13:59;;;;;;;10.30;2.30;;;;;;;10.84;88.69;102797.88;5052080;28;20025;-53
2021/10/11 05:16:26;;;;;;;9.18;2.00;;;;;;;10.83;88.45;102796.13;5051554;28;20040;-54
2021/10/11 05:18:52;;;;;;;11.85;2.25;;;;;;;10.81;88.83;102798.78;5052160;28;20029;-54
2021/10/11 05:21:17;;;;;;;10.80;1.88;;;;;;;10.79;88.96;102799.72;5053171;28;20028;-60
2021/10/11 05:23:42;;;;;;;25.50;2.95;;;;;;;10.73;89.34;102798.03;5052021;28;20102;-54
2021/10/11 05:26:08;;;;;;;12.25;2.92;;;;;;;10.66;89.79;102793.72;5051774;28;20039;-55
2021/10/11 05:28:33;;;;;;;14.18;2.40;;;;;;;10.60;89.92;102788.50;5051561;28;20060;-54
2021/10/11 05:30:58;;;;;;;13.65;2.60;;;;;;;10.53;90.94;102789.50;5051659;28;20033;-53
2021/10/11 05:33:24;;;;;;;9.50;2.60;;;;;;;10.43;90.95;102794.03;5051657;28;20444;-53
2021/10/11 05:35:53;;;;;;;10.38;2.55;;;;;;;10.35;90.52;102796.75;5052143;28;20059;-55
2021/10/11 05:38:19;;;;;;;12.57;2.58;;;;;;;10.23;91.53;102792.47;5052079;28;20380;-57
2021/10/11 05:40:44;;;;;;;11.13;2.72;;;;;;;10.16;91.38;102796.09;5051447;28;20143;-61
2021/10/11 05:43:09;;;;;;;6.60;2.40;;;;;;;10.05;91.65;102796.22;5051352;28;20041;-59
2021/10/11 05:45:35;;;;;;;10.05;2.35;;;;;;;9.98;93.15;102794.53;5051803;28;20091;-55
2021/10/11 05:48:00;;;;;;;12.70;2.45;;;;;;;9.93;93.35;102791.91;5051824;28;20431;-54
2021/10/11 05:50:25;;;;;;;7.55;2.22;;;;;;;9.95;93.39;102806.03;5051938;28;20199;-55
2021/10/11 05:52:51;;;;;;;13.30;2.70;;;;;;;9.96;94.13;102796.31;5055387;28;20021;-54
2021/10/11 05:55:16;;;;;;;12.15;2.65;;;;;;;9.96;94.45;102797.19;5057851;28;20538;-54
2021/10/11 05:57:42;;;;;;;12.13;2.80;;;;;;;9.99;94.27;102796.28;5058781;28;20468;-58
2021/10/11 06:00:08;;;;;;;7.35;2.40;;;;;;;9.95;93.96;102792.78;5058249;28;20025;-53
2021/10/11 06:02:34;;;;;;;10.63;2.50;;;;;;;9.90;93.81;102799.00;5058122;28;20025;-54
2021/10/11 06:05:01;;;;;;;10.40;2.55;;;;;;;9.85;94.09;102801.72;5058053;28;20021;-61
2021/10/11 06:07:26;;;;;;;9.82;2.35;;;;;;;9.83;93.20;102814.97;5058145;28;20057;-55
2021/10/11 06:09:52;;;;;;;12.55;2.90;;;;;;;9.79;93.76;102807.06;5058277;28;20063;-55
2021/10/11 06:12:17;;;;;;;12.00;3.03;;;;;;;9.74;93.83;102809.75;5058233;28;20032;-53
2021/10/11 06:14:42;;;;;;;9.80;2.67;;;;;;;9.73;94.04;102813.31;5057619;28;20068;-54
2021/10/11 06:17:07;;;;;;;8.98;2.78;;;;;;;9.76;94.09;102809.75;5057612;28;20392;-54
2021/10/11 06:19:33;;;;;;;10.30;2.60;;;;;;;9.81;94.87;102813.25;5058244;28;20025;-64
2021/10/11 06:21:58;;;;;;;11.68;2.95;;;;;;;9.91;95.05;102806.06;5058379;28;20033;-54
2021/10/11 06:24:23;;;;;;;15.05;3.10;;;;;;;9.95;94.61;102815.75;5058144;28;20538;-53
2021/10/11 06:26:49;;;;;;;11.98;2.67;;;;;;;10.00;94.72;102811.28;5058296;28;20039;-57
2021/10/11 06:29:15;;;;;;;10.55;2.70;;;;;;;10.06;95.67;102816.47;5058242;28;20496;-60
2021/10/11 06:31:40;;;;;;;17.20;2.78;;;;;;;10.12;95.66;102813.78;5057861;28;20052;-55
2021/10/11 06:34:06;;;;;;;10.50;2.53;;;;;;;10.20;95.48;102812.81;5057671;28;20064;-54
2021/10/11 06:36:34;;;;;;;15.23;3.10;;;;;;;10.28;95.25;102822.44;5057725;28;20045;-57
2021/10/11 06:39:01;;;;;;;12.00;3.03;;;;;;;10.39;95.17;102816.16;5058120;28;20029;-58
2021/10/11 06:41:26;;;;;;;10.38;3.03;;;;;;;10.44;95.04;102819.63;5057929;28;20024;-53
2021/10/11 06:43:51;;;;;;;11.27;2.83;;;;;;;10.51;94.59;102820.41;5057029;28;20102;-52
2021/10/11 06:46:17;;;;;;;14.85;2.88;;;;;;;10.57;94.38;102821.22;5039826;28;20048;-54
2021/10/11 06:48:42;;;;;;;10.20;2.67;;;;;;;10.67;93.29;102827.28;5052217;28;20494;-55
2021/10/11 06:51:07;;;;;;;7.10;2.10;;;;;;;10.74;92.59;102828.06;5058001;28;20040;-56
2021/10/11 06:53:33;;;;;;;8.68;2.58;;;;;;;10.82;92.18;102836.78;5057835;28;20110;-60
2021/10/11 06:55:58;;;;;;;10.07;2.45;;;;;;;10.87;91.31;102842.00;5057458;28;20028;-59
2021/10/11 06:58:23;;;;;;;11.48;2.50;;;;;;;10.95;90.95;102840.16;5057560;28;20062;-56
2021/10/11 07:00:49;;;;;;;10.18;2.60;;;;;;;11.05;90.36;102840.88;5056485;28;20033;-55
2021/10/11 07:03:15;;;;;;;9.32;2.25;;;;;;;11.11;89.67;102848.75;5057178;28;20025;-53
2021/10/11 07:05:40;;;;;;;9.02;2.35;;;;;;;11.21;89.16;102852.13;5054660;28;20033;-57
2021/10/11 07:08:10;;;;;;;10.32;2.47;;;;;;;11.28;88.51;102846.72;5050547;28;20067;-56
2021/10/11 07:10:35;;;;;;;11.05;2.47;;;;;;;11.36;87.85;102841.28;5050162;28;20037;-55
2021/10/11 07:13:02;;;;;;;9.82;2.85;;;;;;;11.45;87.28;102846.44;5054137;28;20469;-59
2021/10/11 07:15:29;;;;;;;9.85;2.47;;;;;;;11.52;86.91;102849.00;5054766;28;20032;-53
2021/10/11 07:17:55;;;;;;;10.00;2.28;;;;;;;11.60;86.21;102850.63;5052184;28;20039;-60
2021/10/11 07:20:20;;;;;;;5.97;1.95;;;;;;;11.67;86.11;102850.53;5054616;28;20025;-55
2021/10/11 07:22:45;;;;;;;9.45;2.10;;;;;;;11.73;86.21;102866.34;5040445;28;20432;-54
2021/10/11 07:25:11;;;;;;;8.52;2.58;;;;;;;11.78;86.25;102856.53;5034115;28;20022;-52
2021/10/11 07:27:36;;;;;;;10.98;2.03;;;;;;;11.88;85.97;102857.22;5034850;28;20432;-54
2021/10/11 07:30:03;;;;;;;7.93;2.13;;;;;;;11.97;85.45;102867.72;5052242;28;20077;-53
2021/10/11 07:32:28;;;;;;;7.20;2.55;;;;;;;12.06;85.35;102862.25;5047236;28;20461;-51
2021/10/11 07:34:54;;;;;;;9.23;2.00;;;;;;;12.18;85.22;102860.25;5052292;28;20047;-54
2021/10/11 07:37:20;;;;;;;12.55;2.50;;;;;;;12.29;84.29;102855.63;5053763;28;20029;-56
2021/10/11 07:39:46;;;;;;;10.45;2.10;;;;;;;12.41;83.90;102862.47;5043246;28;20018;-60
2021/10/11 07:42:11;;;;;;;11.05;1.90;;;;;;;12.51;83.40;102860.50;5041178;28;20040;-59
2021/10/11 07:44:36;;;;;;;11.65;2.13;;;;;;;12.62;83.17;102863.78;5052555;28;20569;-61
2021/10/11 07:47:02;;;;;;;8.82;2.25;;;;;;;12.70;82.72;102875.16;5043017;28;20426;-56
2021/10/11 07:49:28;;;;;;;10.63;2.00;;;;;;;12.79;81.63;102877.59;5043554;28;20017;-57
2021/10/11 07:51:53;;;;;;;13.02;2.00;;;;;;;12.88;80.53;102870.34;5031055;28;20058;-48
2021/10/11 07:54:19;;;;;;;9.30;2.05;;;;;;;12.92;80.17;102867.56;5029151;28;20460;-52
2021/10/11 07:56:45;;;;;;;10.82;2.00;;;;;;;12.97;80.29;102874.56;5030054;28;20029;-53
2021/10/11 07:59:10;;;;;;;11.60;2.30;;;;;;;13.02;79.55;102870.00;5034674;28;20163;-48
2021/10/11 08:01:37;;;;;;;8.52;2.47;;;;;;;13.11;79.25;102885.78;5048274;28;20441;-50
2021/10/11 08:04:03;;;;;;;10.52;2.00;;;;;;;13.20;78.55;102880.25;5052101;28;20075;-54
2021/10/11 08:06:30;;;;;;;11.55;2.35;;;;;;;13.32;78.70;102883.53;5049162;28;20417;-56
2021/10/11 08:08:56;;;;;;;9.70;1.77;;;;;;;13.45;78.36;102874.38;5048606;28;20052;-49
2021/10/11 08:11:21;;;;;;;6.38;1.73;;;;;;;13.61;77.52;102880.19;5049264;28;20150;-55
2021/10/11 08:13:46;;;;;;;8.52;1.90;;;;;;;13.76;77.46;102871.81;5048033;28;20032;-56
2021/10/11 08:16:12;;;;;;;9.43;1.73;;;;;;;13.88;76.11;102880.41;5048673;28;20044;-58
2021/10/11 08:18:37;;;;;;;8.30;1.88;;;;;;;14.01;76.26;102881.81;5041401;28;20123;-54
2021/10/11 08:21:04;;;;;;;10.10;1.95;;;;;;;14.12;75.46;102883.31;5049034;28;20017;-53
2021/10/11 08:23:31;;;;;;;8.65;1.80;;;;;;;14.24;74.97;102886.53;5060268;28;20047;-55
2021/10/11 08:25:57;;;;;;;12.77;1.85;;;;;;;14.42;74.33;102881.59;5055756;28;20108;-55
2021/10/11 08:28:22;;;;;;;8.07;2.17;;;;;;;14.58;74.14;102884.72;5047749;28;20178;-55
2021/10/11 08:30:47;;;;;;;6.28;1.52;;;;;;;14.77;72.85;102886.84;5039485;28;20108;-54
2021/10/11 08:33:13;;;;;;;9.70;2.03;;;;;;;14.94;72.28;102897.91;5046909;28;20070;-55
2021/10/11 08:35:38;;;;;;;8.63;1.90;;;;;;;14.99;71.78;102887.09;5047852;28;20036;-54
2021/10/11 08:38:03;;;;;;;9.30;1.85;;;;;;;14.87;70.47;102883.88;5048098;28;20053;-60
2021/10/11 08:40:29;;;;;;;9.18;1.67;;;;;;;14.99;70.73;102900.44;5047589;28;20032;-55
2021/10/11 08:42:56;;;;;;;13.95;2.15;;;;;;;15.40;69.97;102896.44;5048233;28;20084;-49
2021/10/11 08:45:22;;;;;;;5.90;1.50;;;;;;;16.08;66.85;102898.69;5045533;28;20040;-53
2021/10/11 08:47:47;;;;;;;11.02;1.80;;;;;;;16.98;62.69;102888.25;5048463;28;20041;-54
2021/10/11 08:50:15;;;;;;;9.45;1.90;;;;;;;17.93;59.54;102887.97;5048299;28;20048;-57
2021/10/11 08:52:41;;;;;;;9.05;1.83;;;;;;;18.66;56.01;102882.91;5048265;28;20086;-49
2021/10/11 08:55:07;;;;;;;11.57;2.30;;;;;;;18.51;56.72;102878.25;5047861;28;20433;-54
2021/10/11 08:57:33;;;;;;;10.07;1.90;;;;;;;17.83;58.69;102870.50;5048540;28;20087;-52
2021/10/11 09:00:13;;;;;;;12.65;2.30;;;;;;;17.43;59.66;102866.81;5048778;28;20491;-58
2021/10/11 09:02:52;;;;;;;10.25;2.25;;;;;;;17.67;58.54;102879.22;5048433;28;20366;-57
2021/10/11 09:05:32;;;;;;;6.65;2.00;;;;;;;18.22;58.90;102872.38;5047991;28;20041;-58
2021/10/11 09:08:11;;;;;;;8.48;2.22;;;;;;;18.46;55.53;102878.44;5044382;28;20106;-56
2021/10/11 09:11:02;;;;;;;7.07;1.80;;;;;;;17.82;57.29;102891.06;5047238;28;20138;-58
2021/10/11 09:13:51;;;;;;;8.73;1.85;;;;;;;16.87;59.13;102904.69;5045849;28;20093;-55
2021/10/11 09:19:16;;;;;;;7.90;1.75;;;;;;;15.99;63.57;102905.22;5046296;28;20517;-59
2021/10/11 09:21:42;;;;;;;10.02;2.17;;;;;;;15.78;65.33;102896.13;5027914;28;20496;-56
2021/10/11 09:24:09;;;;;;;9.88;1.92;;;;;;;15.49;66.99;102900.63;5029972;28;20033;-55
2021/10/11 09:26:43;;;;;;;8.50;2.03;;;;;;;15.29;67.67;102909.25;5047822;28;20051;-57
2021/10/11 09:29:09;;;;;;;10.18;1.90;;;;;;;15.20;68.25;102914.91;5047657;28;20093;-56
2021/10/11 09:31:40;;;;;;;8.05;2.10;;;;;;;15.11;68.40;102916.06;5047216;28;20108;-58
2021/10/11 09:34:05;;;;;;;8.93;1.58;;;;;;;14.87;66.44;102918.56;5047706;28;20060;-61
2021/10/11 09:36:31;;;;;;;5.85;1.60;;;;;;;14.80;66.45;102906.31;5046932;28;20075;-54
2021/10/11 09:39:00;;;;;;;5.88;1.50;;;;;;;14.82;67.20;102899.16;5043971;28;20469;-50
2021/10/11 09:41:25;;;;;;;6.47;1.65;;;;;;;14.90;67.98;102914.94;5040674;28;20029;-52
2021/10/11 09:43:51;;;;;;;12.30;2.00;;;;;;;15.02;67.72;102917.19;5046664;28;20053;-54
2021/10/11 09:46:18;;;;;;;8.95;1.40;;;;;;;15.14;66.25;102918.66;5046364;28;20124;-57
2021/10/11 09:48:52;;;;;;;5.55;1.65;;;;;;;15.21;65.08;102916.66;5047347;28;20032;-55
2021/10/11 09:51:20;;;;;;;8.30;1.75;;;;;;;15.23;64.48;102920.16;5030941;28;20028;-56
2021/10/11 09:53:46;;;;;;;8.82;1.80;;;;;;;15.12;64.67;102912.47;5047610;28;20025;-57
2021/10/11 09:56:12;;;;;;;8.88;1.70;;;;;;;15.20;65.09;102901.56;5047314;28;20104;-56
2021/10/11 09:58:38;;;;;;;7.32;1.50;;;;;;;15.74;64.94;102913.16;5047162;28;20032;-55
2021/10/11 10:01:03;;;;;;;8.38;1.80;;;;;;;16.80;61.27;102911.22;5046825;28;20025;-55
2021/10/11 10:03:32;;;;;;;8.63;1.50;;;;;;;17.16;60.68;102910.75;5045858;28;20044;-56
2021/10/11 10:05:59;;;;;;;10.10;1.98;;;;;;;16.93;59.67;102906.28;5047071;28;20033;-53
2021/10/11 10:08:28;;;;;;;8.63;1.80;;;;;;;16.70;62.51;102909.78;5047662;28;20036;-54
2021/10/11 10:10:57;;;;;;;6.45;1.42;;;;;;;16.04;65.51;102913.94;5047031;28;20076;-53
2021/10/11 10:13:25;;;;;;;9.30;1.90;;;;;;;15.56;68.64;102911.97;5047770;28;20059;-56
2021/10/11 10:15:50;;;;;;;5.90;1.40;;;;;;;15.32;70.56;102905.63;5047038;28;20371;-55
2021/10/11 10:18:19;;;;;;;8.40;2.22;;;;;;;15.12;72.76;102906.28;5047315;28;20052;-52
2021/10/11 10:20:58;;;;;;;10.10;2.08;;;;;;;15.24;70.42;102900.53;5047141;28;20497;-56
2021/10/11 10:23:28;;;;;;;7.15;1.33;;;;;;;15.16;72.57;102906.09;5047034;28;20388;-53
2021/10/11 10:25:58;;;;;;;10.55;2.38;;;;;;;15.40;71.65;102900.94;5047216;28;20192;-54
2021/10/11 10:28:25;;;;;;;6.22;1.52;;;;;;;15.54;70.73;102904.00;5047407;28;20029;-50
2021/10/11 10:30:58;;;;;;;7.38;1.73;;;;;;;15.77;70.22;102907.72;5046187;28;20430;-57
2021/10/11 10:33:44;;;;;;;7.88;1.67;;;;;;;15.93;68.70;102901.88;5035641;28;20064;-51
2021/10/11 10:36:23;;;;;;;6.90;1.67;;;;;;;16.11;67.14;102903.91;5035720;28;20034;-57
2021/10/11 10:38:56;;;;;;;8.23;1.85;;;;;;;16.42;66.88;102904.59;5035240;28;20860;-58
2021/10/11 10:41:21;;;;;;;7.25;1.90;;;;;;;16.88;64.60;102909.09;5041140;28;20049;-52
2021/10/11 10:43:46;;;;;;;8.45;1.70;;;;;;;17.51;62.84;102905.75;5050811;28;20041;-56
2021/10/11 10:46:12;;;;;;;7.00;1.65;;;;;;;18.27;59.29;102893.63;5047675;28;20372;-53
2021/10/11 10:48:47;;;;;;;13.05;2.00;;;;;;;18.99;58.58;102887.66;5043947;28;20404;-56
2021/10/11 10:51:13;;;;;;;8.75;2.40;;;;;;;19.30;56.03;102898.72;5035484;28;20033;-56
2021/10/11 10:53:40;;;;;;;8.90;4.00;;;;;;;19.40;54.47;102893.75;5042356;28;20029;-56
2021/10/11 10:56:11;;;;;;;7.40;1.90;;;;;;;19.18;53.96;102884.06;5040416;28;20096;-60
2021/10/11 10:58:36;;;;;;;6.68;1.58;;;;;;;18.46;56.59;102897.22;5048595;28;20102;-54
2021/10/11 11:01:01;;;;;;;9.00;1.48;;;;;;;18.41;57.02;102893.03;5042576;28;20055;-62
2021/10/11 11:03:27;;;;;;;7.47;1.75;;;;;;;18.26;56.89;102900.81;5040955;28;20341;-62
2021/10/11 11:05:54;;;;;;;11.45;1.80;;;;;;;17.82;57.12;102893.72;5049681;28;20076;-57
2021/10/11 11:08:25;;;;;;;6.18;1.63;;;;;;;17.69;55.02;102893.38;5049074;28;20013;-54
2021/10/11 11:10:51;;;;;;;;;;;;;;;17.84;55.79;102893.69;5051331;28;20052;-51
2021/10/11 11:13:16;;;;;;;4.80;1.40;;;;;;;18.28;53.50;102890.03;5050840;28;20241;-54
2021/10/11 11:15:51;;;;;;;5.72;1.50;;;;;;;18.66;52.87;102901.69;5050345;28;20124;-53
2021/10/11 11:18:20;;;;;;;7.85;1.67;;;;;;;19.03;52.32;102884.81;5049706;28;20059;-54
2021/10/11 11:20:47;;;;;;;6.32;1.60;;;;;;;18.93;50.56;102896.00;5050567;28;20384;-50
2021/10/11 11:23:22;;;;;;;5.10;1.67;;;;;;;18.63;51.30;102899.16;5049980;28;20071;-56